Observations for BARCELONA AIRPORT, Spain (LEBL)

LEBL 112230Z 33008KT CAVOK 09/06 Q1020 NOSIG
LEBL 112200Z 34007KT CAVOK 09/06 Q1020 NOSIG
LEBL 112130Z 34007KT CAVOK 09/06 Q1020 NOSIG
LEBL 112100Z 32006KT CAVOK 09/07 Q1020 NOSIG
LEBL 112030Z 32006KT 9999 FEW025 09/07 Q1019 NOSIG  
LEBL 112000Z 31005KT 9999 FEW025 10/07 Q1020 NOSIG  
LEBL 111930Z 32006KT 230V360 9999 FEW025 10/07 Q1019 NOSIG  
LEBL 111900Z 31007KT 9999 FEW025 10/07 Q1020 NOSIG  
LEBL 111830Z 28006KT 270V330 9999 FEW025 11/07 Q1020 NOSIG  
LEBL 111800Z 29005KT 250V350 9999 FEW025 11/08 Q1020 NOSIG  
LEBL 111730Z 28006KT 9999 FEW025 11/08 Q1020 NOSIG  
LEBL 111700Z 26005KT 9999 FEW025 12/08 Q1020 NOSIG  
LEBL 111630Z 25006KT 9999 FEW025 12/09 Q1020 NOSIG  
LEBL 111600Z 23005KT 9999 FEW025 13/09 Q1020 NOSIG  
LEBL 111530Z 22006KT 9999 FEW025 13/09 Q1020 NOSIG  
LEBL 111500Z 20004KT 9999 FEW025 14/09 Q1020 NOSIG  
LEBL 111430Z 20005KT 170V240 9999 FEW025 14/08 Q1020 NOSIG  
LEBL 111400Z 21005KT 170V240 9999 FEW028 14/07 Q1020 NOSIG  
LEBL 111330Z 22006KT 9999 FEW028 14/07 Q1021 NOSIG  
LEBL 111300Z VRB02KT 9999 FEW028 14/07 Q1021 NOSIG  
LEBL 111230Z VRB02KT 9999 FEW028 14/06 Q1022 NOSIG  
LEBL 111200Z 32003KT 260V030 9999 FEW028 13/06 Q1022 NOSIG  
LEBL 111130Z 32005G15KT 200V010 9999 FEW030 12/06 Q1022 NOSIG   
LEBL 111100Z 32007KT 300V360 9999 FEW030 12/06 Q1023 NOSIG  
LEBL 111030Z 33008KT 280V350 9999 FEW030 10/05 Q1023 NOSIG  
LEBL 111000Z 33008KT 280V350 9999 FEW030 09/05 Q1023 NOSIG  
LEBL 110930Z 33011KT 9999 FEW030 08/04 Q1023 NOSIG  
LEBL 110900Z 33009KT 290V010 9999 FEW028 06/04 Q1023 NOSIG  
LEBL 110830Z 33010KT 9999 FEW028 06/03 Q1023 NOSIG  
LEBL 110800Z 33012G23KT 9999 FEW028 05/03 Q1023 NOSIG   
LEBL 110730Z 32011KT 290V350 9999 FEW028 05/03 Q1023 NOSIG  
LEBL 110700Z 33011KT 9999 FEW028 05/03 Q1023 NOSIG  
LEBL 110630Z 33011KT 9999 FEW025 05/03 Q1023 NOSIG  
LEBL 110600Z 33012KT 9999 FEW020 05/03 Q1023 NOSIG  
LEBL 110530Z 32013KT CAVOK 06/03 Q1023 NOSIG
LEBL 110500Z 33012KT 9999 FEW030 06/04 Q1023 NOSIG  
LEBL 110430Z 33012KT CAVOK 06/04 Q1023 NOSIG
LEBL 110400Z 33012KT 9000 NSC 06/04 Q1024 NOSIG 
LEBL 110330Z 32013KT 9000 NSC 06/04 Q1024 NOSIG 
LEBL 110300Z 33012KT 9000 FEW020 06/04 Q1024 NOSIG  
LEBL 110230Z 33010KT 9000 FEW020 06/04 Q1024 NOSIG  
LEBL 110200Z 33011KT 9000 FEW020 07/04 Q1025 NOSIG  
LEBL 110130Z 33011KT 9000 FEW020 07/05 Q1025 NOSIG  
LEBL 110100Z 33010KT 9000 FEW020 07/05 Q1025 NOSIG  
LEBL 110030Z 32010KT 9000 FEW020 08/05 Q1025 NOSIG  
LEBL 110000Z 33010KT 9000 NSC 08/05 Q1026 NOSIG 
LEBL 102330Z 32010KT 9000 FEW030 08/05 Q1026 NOSIG  
LEBL 102230Z 32009KT 9000 FEW030 08/06 Q1026 NOSIG  
LEBL 102200Z 32007KT 290V360 9000 FEW020 08/06 Q1027 NOSIG